createdAt,value
2022-12-17T00:03:03.397Z,-4.50
2022-12-17T00:07:44.101Z,-4.60
2022-12-17T00:12:24.664Z,-4.60
2022-12-17T00:17:05.543Z,-4.60
2022-12-17T00:21:46.240Z,-4.70
2022-12-17T00:26:27.565Z,-4.70
2022-12-17T00:31:11.652Z,-4.70
2022-12-17T00:35:52.445Z,-4.70
2022-12-17T00:40:33.314Z,-4.70
2022-12-17T00:45:14.301Z,-4.80
2022-12-17T00:49:56.180Z,-4.80
2022-12-17T00:54:39.111Z,-4.80
2022-12-17T00:59:19.891Z,-4.70
2022-12-17T01:04:00.544Z,-4.70
2022-12-17T01:08:41.519Z,-4.70
2022-12-17T01:13:22.443Z,-4.70
2022-12-17T01:18:03.232Z,-4.70
2022-12-17T01:22:43.733Z,-4.80
2022-12-17T01:27:24.155Z,-4.80
2022-12-17T01:32:05.149Z,-4.70
2022-12-17T01:36:45.870Z,-4.70
2022-12-17T01:41:26.406Z,-4.60
2022-12-17T01:46:08.940Z,-4.60
2022-12-17T01:51:03.945Z,-4.50
2022-12-17T01:55:44.735Z,-4.50
2022-12-17T02:00:30.123Z,-4.40
2022-12-17T02:05:11.292Z,-4.40
2022-12-17T02:10:44.037Z,-4.40
2022-12-17T02:15:47.695Z,-4.40
2022-12-17T02:20:37.493Z,-4.40
2022-12-17T02:25:28.169Z,-4.40
2022-12-17T02:30:14.797Z,-4.40
2022-12-17T02:35:06.379Z,-4.50
2022-12-17T02:39:49.841Z,-4.50
2022-12-17T02:44:34.322Z,-4.50
2022-12-17T02:49:15.138Z,-4.50
2022-12-17T02:54:03.994Z,-4.40
2022-12-17T02:58:45.566Z,-4.40
2022-12-17T03:03:27.691Z,-4.40
2022-12-17T03:08:08.706Z,-4.40
2022-12-17T03:12:49.239Z,-4.40
2022-12-17T03:17:29.930Z,-4.40
2022-12-17T03:22:10.786Z,-4.40
2022-12-17T03:26:51.356Z,-4.40
2022-12-17T03:31:32.294Z,-4.40
2022-12-17T03:36:13.582Z,-4.40
2022-12-17T03:40:54.467Z,-4.50
2022-12-17T03:45:35.098Z,-4.40
2022-12-17T03:50:15.754Z,-4.50
2022-12-17T03:54:56.413Z,-4.40
2022-12-17T03:59:37.147Z,-4.40
2022-12-17T04:04:17.621Z,-4.40
2022-12-17T04:08:58.098Z,-4.40
2022-12-17T04:13:41.126Z,-4.40
2022-12-17T04:18:22.118Z,-4.40
2022-12-17T04:23:02.906Z,-4.40
2022-12-17T04:27:43.550Z,-4.30
2022-12-17T04:32:24.388Z,-4.30
2022-12-17T04:37:04.685Z,-4.20
2022-12-17T04:41:45.501Z,-4.10
2022-12-17T04:46:26.230Z,-4.20
2022-12-17T04:51:07.085Z,-4.10
2022-12-17T04:55:47.558Z,-4.30
2022-12-17T05:00:28.677Z,-4.20
2022-12-17T05:05:09.135Z,-4.10
2022-12-17T05:09:50.189Z,-4.00
2022-12-17T05:14:41.229Z,-4.00
2022-12-17T05:19:21.669Z,-4.00
2022-12-17T05:24:02.441Z,-4.00
2022-12-17T05:28:43.225Z,-3.90
2022-12-17T05:33:24.015Z,-3.90
2022-12-17T05:38:04.713Z,-3.90
2022-12-17T05:42:45.322Z,-3.90
2022-12-17T05:47:26.219Z,-3.90
2022-12-17T05:52:08.101Z,-3.90
2022-12-17T05:56:48.664Z,-3.90
2022-12-17T06:01:29.353Z,-4.00
2022-12-17T06:06:14.994Z,-4.00
2022-12-17T06:10:55.716Z,-3.90
2022-12-17T06:15:36.336Z,-3.90
2022-12-17T06:20:37.008Z,-3.90
2022-12-17T06:25:18.504Z,-3.90
2022-12-17T06:29:59.367Z,-4.00
2022-12-17T06:34:40.191Z,-3.90
2022-12-17T06:39:21.094Z,-3.90
2022-12-17T06:44:01.492Z,-3.90
2022-12-17T06:48:42.221Z,-3.90
2022-12-17T06:53:26.067Z,-3.80
2022-12-17T06:58:06.720Z,-3.80
2022-12-17T07:02:47.891Z,-3.80
2022-12-17T07:07:29.974Z,-3.90
2022-12-17T07:12:11.050Z,-3.90
2022-12-17T07:16:52.064Z,-3.90
2022-12-17T07:21:32.897Z,-3.80
2022-12-17T07:26:15.430Z,-3.80
2022-12-17T07:30:56.341Z,-3.80
2022-12-17T07:35:37.192Z,-3.80
2022-12-17T07:40:18.081Z,-3.70
2022-12-17T07:44:58.644Z,-3.70
2022-12-17T07:49:39.519Z,-3.60
2022-12-17T07:54:19.980Z,-3.50
2022-12-17T07:59:00.760Z,-3.40
2022-12-17T08:03:41.802Z,-3.40
2022-12-17T08:08:28.013Z,-3.30
2022-12-17T08:13:17.354Z,-3.20
2022-12-17T08:17:58.119Z,-3.10
2022-12-17T08:22:38.906Z,-3.10
2022-12-17T08:27:19.634Z,-3.00
2022-12-17T08:32:00.129Z,-3.00
2022-12-17T08:36:40.921Z,-2.90
2022-12-17T08:41:22.297Z,-2.90
2022-12-17T08:46:07.801Z,-2.90
2022-12-17T08:50:48.577Z,-2.80
2022-12-17T08:55:29.617Z,-2.80
2022-12-17T09:00:10.741Z,-2.90
2022-12-17T09:04:51.936Z,-2.80
2022-12-17T09:09:32.802Z,-2.80
2022-12-17T09:14:13.462Z,-2.70
2022-12-17T09:18:54.457Z,-2.60
2022-12-17T09:23:36.592Z,-2.40
2022-12-17T09:28:21.851Z,-2.30
2022-12-17T09:33:02.917Z,-2.30
2022-12-17T09:37:43.806Z,-2.20
2022-12-17T09:42:33.783Z,-2.20
2022-12-17T09:47:57.782Z,-2.10
2022-12-17T09:52:43.600Z,-2.00
2022-12-17T09:57:25.372Z,-1.90
2022-12-17T10:02:06.626Z,-2.00
2022-12-17T10:06:48.092Z,-2.20
2022-12-17T10:11:43.061Z,-2.20
2022-12-17T10:16:49.031Z,-2.20
2022-12-17T10:21:31.578Z,-2.00
2022-12-17T10:26:14.574Z,-1.60
2022-12-17T10:30:55.602Z,-1.50
2022-12-17T10:35:40.572Z,-1.20
2022-12-17T10:40:23.969Z,-1.20
2022-12-17T10:45:04.780Z,-1.20
2022-12-17T10:49:45.756Z,-1.20
2022-12-17T10:54:50.175Z,-1.10
2022-12-17T10:59:55.847Z,-1.00
2022-12-17T11:04:50.955Z,-0.90
2022-12-17T11:10:09.167Z,-0.60
2022-12-17T11:15:06.202Z,-0.40
2022-12-17T11:20:12.798Z,-0.30
2022-12-17T11:25:08.355Z,-0.40
2022-12-17T11:29:49.206Z,-0.50
2022-12-17T11:34:51.202Z,-0.60
2022-12-17T11:40:02.034Z,-0.70
2022-12-17T11:45:03.740Z,-0.60
2022-12-17T11:49:53.177Z,-0.60
2022-12-17T11:54:58.763Z,-0.50
2022-12-17T12:00:04.268Z,-0.50
2022-12-17T12:04:57.688Z,-0.60
2022-12-17T12:09:56.784Z,-0.60
2022-12-17T12:15:13.044Z,-0.50
2022-12-17T12:20:29.837Z,-0.40
2022-12-17T12:25:24.739Z,-0.20
2022-12-17T12:30:34.025Z,0.10
2022-12-17T12:35:16.870Z,0.30
2022-12-17T12:40:25.932Z,0.40
2022-12-17T12:45:13.268Z,0.50
2022-12-17T12:50:35.423Z,0.30
2022-12-17T12:55:16.088Z,0.10
2022-12-17T12:59:57.244Z,0.10
2022-12-17T13:05:14.591Z,0.00
2022-12-17T13:09:49.441Z,0.00
2022-12-17T13:14:30.936Z,-0.10
2022-12-17T13:19:18.426Z,-0.20
2022-12-17T13:23:40.627Z,-0.20
2022-12-17T13:28:05.502Z,-0.20
2022-12-17T13:32:38.755Z,-0.20
2022-12-17T13:37:18.169Z,-0.30
2022-12-17T13:41:40.088Z,-0.40
2022-12-17T13:46:02.182Z,-0.50
2022-12-17T13:50:35.304Z,-0.60
2022-12-17T13:55:19.625Z,-0.60
2022-12-17T13:59:48.909Z,-0.70
2022-12-17T14:04:28.149Z,-0.80
2022-12-17T14:08:54.311Z,-0.90
2022-12-17T14:13:16.951Z,-1.00
2022-12-17T14:17:45.304Z,-1.00
2022-12-17T14:22:07.350Z,-1.00
2022-12-17T14:26:29.860Z,-1.10
2022-12-17T14:31:26.071Z,-1.20
2022-12-17T14:35:54.243Z,-1.30
2022-12-17T14:40:19.004Z,-1.40
2022-12-17T14:44:55.605Z,-1.50
2022-12-17T14:49:21.108Z,-1.50
2022-12-17T14:53:43.218Z,-1.60
2022-12-17T14:58:17.640Z,-1.70
2022-12-17T15:02:39.757Z,-1.80
2022-12-17T15:07:02.942Z,-1.90
2022-12-17T15:11:25.335Z,-2.00
2022-12-17T15:15:47.339Z,-2.10
2022-12-17T15:20:21.631Z,-2.20
2022-12-17T15:29:29.567Z,-2.30
2022-12-17T15:33:51.339Z,-2.40
2022-12-17T15:38:13.363Z,-2.40
2022-12-17T15:42:53.746Z,-2.50
2022-12-17T15:47:15.786Z,-2.50
2022-12-17T15:51:37.982Z,-2.50
2022-12-17T15:56:04.447Z,-2.50
2022-12-17T16:00:26.445Z,-2.50
2022-12-17T16:04:48.290Z,-2.50
2022-12-17T16:09:10.212Z,-2.50
2022-12-17T16:13:32.126Z,-2.60
2022-12-17T16:17:53.957Z,-2.60
2022-12-17T16:22:16.592Z,-2.70
2022-12-17T16:26:38.397Z,-2.70
2022-12-17T16:31:07.263Z,-2.70
2022-12-17T16:35:29.188Z,-2.80
2022-12-17T16:39:58.235Z,-3.00
2022-12-17T16:44:22.007Z,-3.10
2022-12-17T16:48:43.821Z,-3.10
2022-12-17T16:53:05.839Z,-3.20
2022-12-17T16:57:27.926Z,-3.30
2022-12-17T17:01:52.031Z,-3.50
2022-12-17T17:06:14.968Z,-3.70
2022-12-17T17:10:37.306Z,-3.80
2022-12-17T17:15:01.701Z,-3.90
2022-12-17T17:19:23.406Z,-4.20
2022-12-17T17:23:48.379Z,-4.40
2022-12-17T17:28:10.332Z,-4.50
2022-12-17T17:32:32.437Z,-4.70
2022-12-17T17:36:54.460Z,-4.80
2022-12-17T17:41:23.630Z,-4.80
2022-12-17T17:45:45.408Z,-5.00
2022-12-17T17:50:07.645Z,-5.20
2022-12-17T17:54:29.647Z,-5.30
2022-12-17T17:58:59.612Z,-5.40
2022-12-17T18:03:21.853Z,-5.70
2022-12-17T18:07:43.715Z,-5.80
2022-12-17T18:12:26.063Z,-5.90
2022-12-17T18:16:48.838Z,-6.10
2022-12-17T18:21:15.235Z,-6.20
2022-12-17T18:25:37.821Z,-6.40
2022-12-17T18:30:00.003Z,-6.50
2022-12-17T18:34:27.836Z,-6.50
2022-12-17T18:39:08.293Z,-6.60
2022-12-17T18:43:30.096Z,-6.70
2022-12-17T18:47:51.990Z,-6.90
2022-12-17T18:52:16.977Z,-6.90
2022-12-17T18:57:00.501Z,-6.90
2022-12-17T19:01:30.839Z,-6.90
2022-12-17T19:05:54.337Z,-7.10
2022-12-17T19:10:16.319Z,-7.20
2022-12-17T19:14:39.010Z,-7.30
2022-12-17T19:19:03.298Z,-7.20
2022-12-17T19:23:28.760Z,-7.20
2022-12-17T19:27:53.406Z,-7.30
2022-12-17T19:32:15.225Z,-7.30
2022-12-17T19:36:39.067Z,-7.30
2022-12-17T19:41:10.185Z,-7.30
2022-12-17T19:45:32.908Z,-7.30
2022-12-17T19:49:54.907Z,-7.40
2022-12-17T19:54:16.911Z,-7.40
2022-12-17T19:58:42.815Z,-7.50
2022-12-17T20:03:05.096Z,-7.60
2022-12-17T20:07:26.771Z,-7.70
2022-12-17T20:11:48.655Z,-7.80
2022-12-17T20:16:10.631Z,-7.80
2022-12-17T20:20:32.911Z,-7.80
2022-12-17T20:24:54.867Z,-7.80
2022-12-17T20:29:18.118Z,-7.80
2022-12-17T20:33:40.341Z,-7.70
2022-12-17T20:38:02.226Z,-7.80
2022-12-17T20:42:24.519Z,-7.80
2022-12-17T20:46:46.443Z,-7.80
2022-12-17T20:51:16.060Z,-7.90
2022-12-17T20:55:37.771Z,-7.90
2022-12-17T20:59:59.644Z,-8.00
2022-12-17T21:04:21.711Z,-8.10
2022-12-17T21:08:50.193Z,-8.20
2022-12-17T21:13:30.824Z,-8.30
2022-12-17T21:17:52.923Z,-8.50
2022-12-17T21:22:14.872Z,-8.60
2022-12-17T21:26:40.714Z,-8.60
2022-12-17T21:31:03.744Z,-8.70
2022-12-17T21:35:26.913Z,-8.70
2022-12-17T21:39:48.608Z,-8.70
2022-12-17T21:44:13.215Z,-8.80
2022-12-17T21:48:42.351Z,-8.80
2022-12-17T21:53:04.518Z,-8.80
2022-12-17T21:57:26.328Z,-8.90
2022-12-17T22:01:49.276Z,-9.00
2022-12-17T22:06:15.278Z,-9.10
2022-12-17T22:10:47.865Z,-9.10
2022-12-17T22:15:12.387Z,-9.20
2022-12-17T22:19:35.559Z,-9.20
2022-12-17T22:23:57.551Z,-9.10
2022-12-17T22:28:19.785Z,-9.20
2022-12-17T22:32:59.930Z,-9.40
2022-12-17T22:42:31.689Z,-9.50
2022-12-17T22:44:30.124Z,-9.60
2022-12-17T22:47:06.358Z,-9.70
2022-12-17T22:51:33.451Z,-9.70
2022-12-17T22:56:14.647Z,-9.80
2022-12-17T23:00:41.506Z,-9.90
2022-12-17T23:05:03.507Z,-10.00
2022-12-17T23:09:25.506Z,-10.00
2022-12-17T23:13:47.652Z,-10.10
2022-12-17T23:18:10.282Z,-10.20
2022-12-17T23:22:32.272Z,-10.20
2022-12-17T23:26:54.201Z,-10.20
2022-12-17T23:31:20.724Z,-10.10
2022-12-17T23:35:42.646Z,-10.10
2022-12-17T23:40:05.999Z,-10.10
2022-12-17T23:44:28.099Z,-10.10
2022-12-17T23:48:51.065Z,-10.40
2022-12-17T23:53:12.509Z,-10.50
2022-12-17T23:57:34.646Z,-10.60
